sensor_id;sensor_type;location;lat;lon;timestamp;temperature;humidity
65378;SHT31;51982;51.042;13.806;2023-02-01T00:00:26;7.85;78.54
65378;SHT31;51982;51.042;13.806;2023-02-01T00:02:51;7.86;78.57
65378;SHT31;51982;51.042;13.806;2023-02-01T00:05:17;7.72;78.43
65378;SHT31;51982;51.042;13.806;2023-02-01T00:07:42;7.74;78.60
65378;SHT31;51982;51.042;13.806;2023-02-01T00:10:08;7.68;78.34
65378;SHT31;51982;51.042;13.806;2023-02-01T00:12:33;7.69;78.39
65378;SHT31;51982;51.042;13.806;2023-02-01T00:15:02;7.69;78.21
65378;SHT31;51982;51.042;13.806;2023-02-01T00:17:27;7.71;78.46
65378;SHT31;51982;51.042;13.806;2023-02-01T00:19:52;7.79;78.27
65378;SHT31;51982;51.042;13.806;2023-02-01T00:22:18;7.82;77.98
65378;SHT31;51982;51.042;13.806;2023-02-01T00:24:43;7.71;78.02
65378;SHT31;51982;51.042;13.806;2023-02-01T00:27:11;7.82;78.06
65378;SHT31;51982;51.042;13.806;2023-02-01T00:29:42;7.89;77.73
65378;SHT31;51982;51.042;13.806;2023-02-01T00:32:07;7.98;77.76
65378;SHT31;51982;51.042;13.806;2023-02-01T00:34:32;7.99;77.70
65378;SHT31;51982;51.042;13.806;2023-02-01T00:36:58;7.96;77.74
65378;SHT31;51982;51.042;13.806;2023-02-01T00:39:25;8.00;77.66
65378;SHT31;51982;51.042;13.806;2023-02-01T00:41:50;7.99;77.60
65378;SHT31;51982;51.042;13.806;2023-02-01T00:44:15;7.99;77.73
65378;SHT31;51982;51.042;13.806;2023-02-01T00:46:41;7.99;77.72
65378;SHT31;51982;51.042;13.806;2023-02-01T00:49:06;8.05;77.77
65378;SHT31;51982;51.042;13.806;2023-02-01T00:51:33;8.06;77.70
65378;SHT31;51982;51.042;13.806;2023-02-01T00:53:58;8.05;77.65
65378;SHT31;51982;51.042;13.806;2023-02-01T00:56:23;8.10;77.47
65378;SHT31;51982;51.042;13.806;2023-02-01T00:58:48;8.13;77.33
65378;SHT31;51982;51.042;13.806;2023-02-01T01:01:20;8.09;77.28
65378;SHT31;51982;51.042;13.806;2023-02-01T01:03:48;8.09;77.04
65378;SHT31;51982;51.042;13.806;2023-02-01T01:06:17;8.00;77.05
65378;SHT31;51982;51.042;13.806;2023-02-01T01:08:43;8.06;76.96
65378;SHT31;51982;51.042;13.806;2023-02-01T01:11:11;8.06;77.00
65378;SHT31;51982;51.042;13.806;2023-02-01T01:13:37;8.06;76.82
65378;SHT31;51982;51.042;13.806;2023-02-01T01:16:04;8.00;76.51
65378;SHT31;51982;51.042;13.806;2023-02-01T01:18:31;8.13;76.61
65378;SHT31;51982;51.042;13.806;2023-02-01T01:20:57;8.07;76.51
65378;SHT31;51982;51.042;13.806;2023-02-01T01:23:23;8.03;76.55
65378;SHT31;51982;51.042;13.806;2023-02-01T01:25:48;8.00;76.72
65378;SHT31;51982;51.042;13.806;2023-02-01T01:28:14;8.03;76.59
65378;SHT31;51982;51.042;13.806;2023-02-01T01:30:39;8.05;76.17
65378;SHT31;51982;51.042;13.806;2023-02-01T01:33:04;8.10;76.35
65378;SHT31;51982;51.042;13.806;2023-02-01T01:35:31;8.09;76.14
65378;SHT31;51982;51.042;13.806;2023-02-01T01:37:57;8.13;76.11
65378;SHT31;51982;51.042;13.806;2023-02-01T01:40:23;8.16;76.11
65378;SHT31;51982;51.042;13.806;2023-02-01T01:42:49;8.13;75.96
65378;SHT31;51982;51.042;13.806;2023-02-01T01:45:27;8.10;75.85
65378;SHT31;51982;51.042;13.806;2023-02-01T01:48:02;8.07;75.59
65378;SHT31;51982;51.042;13.806;2023-02-01T01:50:40;8.13;75.49
65378;SHT31;51982;51.042;13.806;2023-02-01T01:53:08;8.22;75.52
65378;SHT31;51982;51.042;13.806;2023-02-01T01:55:37;8.22;75.43
65378;SHT31;51982;51.042;13.806;2023-02-01T01:58:10;8.22;75.33
65378;SHT31;51982;51.042;13.806;2023-02-01T02:00:37;8.17;75.03
65378;SHT31;51982;51.042;13.806;2023-02-01T02:03:15;8.16;75.24
65378;SHT31;51982;51.042;13.806;2023-02-01T02:05:43;8.20;75.31
65378;SHT31;51982;51.042;13.806;2023-02-01T02:08:08;8.12;75.21
65378;SHT31;51982;51.042;13.806;2023-02-01T02:10:34;8.17;75.00
65378;SHT31;51982;51.042;13.806;2023-02-01T02:13:25;8.14;75.23
65378;SHT31;51982;51.042;13.806;2023-02-01T02:21:47;8.14;74.65
65378;SHT31;51982;51.042;13.806;2023-02-01T02:24:49;8.25;74.77
65378;SHT31;51982;51.042;13.806;2023-02-01T02:30:12;8.12;74.47
65378;SHT31;51982;51.042;13.806;2023-02-01T02:35:45;8.12;74.19
65378;SHT31;51982;51.042;13.806;2023-02-01T02:38:19;8.12;73.96
65378;SHT31;51982;51.042;13.806;2023-02-01T02:43:21;8.05;74.21
65378;SHT31;51982;51.042;13.806;2023-02-01T02:46:24;8.07;74.17
65378;SHT31;51982;51.042;13.806;2023-02-01T02:49:21;7.98;74.16
65378;SHT31;51982;51.042;13.806;2023-02-01T02:51:52;7.90;74.20
65378;SHT31;51982;51.042;13.806;2023-02-01T02:54:42;7.95;74.27
65378;SHT31;51982;51.042;13.806;2023-02-01T02:57:16;7.95;74.51
65378;SHT31;51982;51.042;13.806;2023-02-01T03:00:02;8.02;74.51
65378;SHT31;51982;51.042;13.806;2023-02-01T03:02:47;7.96;74.46
65378;SHT31;51982;51.042;13.806;2023-02-01T03:05:36;7.95;74.53
65378;SHT31;51982;51.042;13.806;2023-02-01T03:08:13;7.96;74.49
65378;SHT31;51982;51.042;13.806;2023-02-01T03:18:57;7.95;74.11
65378;SHT31;51982;51.042;13.806;2023-02-01T03:21:35;7.88;74.19
65378;SHT31;51982;51.042;13.806;2023-02-01T03:24:08;7.99;74.24
65378;SHT31;51982;51.042;13.806;2023-02-01T03:26:38;8.02;74.36
65378;SHT31;51982;51.042;13.806;2023-02-01T03:29:24;7.89;74.10
65378;SHT31;51982;51.042;13.806;2023-02-01T03:31:51;8.03;74.24
65378;SHT31;51982;51.042;13.806;2023-02-01T03:34:18;8.07;74.23
65378;SHT31;51982;51.042;13.806;2023-02-01T03:36:49;8.05;74.43
65378;SHT31;51982;51.042;13.806;2023-02-01T03:39:25;8.02;74.17
65378;SHT31;51982;51.042;13.806;2023-02-01T03:41:57;8.05;74.20
65378;SHT31;51982;51.042;13.806;2023-02-01T03:44:26;8.05;74.16
65378;SHT31;51982;51.042;13.806;2023-02-01T03:47:25;8.05;73.90
65378;SHT31;51982;51.042;13.806;2023-02-01T03:49:55;8.07;73.84
65378;SHT31;51982;51.042;13.806;2023-02-01T03:52:27;8.05;73.99
65378;SHT31;51982;51.042;13.806;2023-02-01T03:54:53;8.06;74.03
65378;SHT31;51982;51.042;13.806;2023-02-01T03:57:25;8.00;73.82
65378;SHT31;51982;51.042;13.806;2023-02-01T03:59:51;8.09;73.88
65378;SHT31;51982;51.042;13.806;2023-02-01T04:02:17;8.07;73.70
65378;SHT31;51982;51.042;13.806;2023-02-01T04:04:42;8.13;73.74
65378;SHT31;51982;51.042;13.806;2023-02-01T04:07:07;8.17;73.83
65378;SHT31;51982;51.042;13.806;2023-02-01T04:09:32;8.17;73.61
65378;SHT31;51982;51.042;13.806;2023-02-01T04:11:58;8.19;73.58
65378;SHT31;51982;51.042;13.806;2023-02-01T04:14:23;8.17;73.60
65378;SHT31;51982;51.042;13.806;2023-02-01T04:16:48;8.16;73.66
65378;SHT31;51982;51.042;13.806;2023-02-01T04:19:13;8.17;73.37
65378;SHT31;51982;51.042;13.806;2023-02-01T04:21:38;8.16;73.46
65378;SHT31;51982;51.042;13.806;2023-02-01T04:24:04;8.10;73.25
65378;SHT31;51982;51.042;13.806;2023-02-01T04:26:29;8.12;73.22
65378;SHT31;51982;51.042;13.806;2023-02-01T04:28:55;8.10;73.24
65378;SHT31;51982;51.042;13.806;2023-02-01T04:31:20;8.12;73.28
65378;SHT31;51982;51.042;13.806;2023-02-01T04:33:53;8.03;73.20
65378;SHT31;51982;51.042;13.806;2023-02-01T04:36:20;8.06;73.27
65378;SHT31;51982;51.042;13.806;2023-02-01T04:38:51;8.07;73.16
65378;SHT31;51982;51.042;13.806;2023-02-01T04:41:17;8.06;72.94
65378;SHT31;51982;51.042;13.806;2023-02-01T04:43:45;8.06;73.20
65378;SHT31;51982;51.042;13.806;2023-02-01T04:46:11;8.07;73.01
65378;SHT31;51982;51.042;13.806;2023-02-01T04:48:36;8.06;73.05
65378;SHT31;51982;51.042;13.806;2023-02-01T04:51:01;8.03;73.05
65378;SHT31;51982;51.042;13.806;2023-02-01T04:53:26;8.05;73.01
65378;SHT31;51982;51.042;13.806;2023-02-01T04:55:51;8.06;73.03
65378;SHT31;51982;51.042;13.806;2023-02-01T04:58:17;8.03;72.95
65378;SHT31;51982;51.042;13.806;2023-02-01T05:00:42;8.05;72.94
65378;SHT31;51982;51.042;13.806;2023-02-01T05:03:07;8.03;72.99
65378;SHT31;51982;51.042;13.806;2023-02-01T05:05:33;8.05;72.92
65378;SHT31;51982;51.042;13.806;2023-02-01T05:07:58;8.07;72.81
65378;SHT31;51982;51.042;13.806;2023-02-01T05:10:23;8.07;72.86
65378;SHT31;51982;51.042;13.806;2023-02-01T05:12:48;8.06;72.85
65378;SHT31;51982;51.042;13.806;2023-02-01T05:15:32;8.09;72.75
65378;SHT31;51982;51.042;13.806;2023-02-01T05:17:58;8.07;72.77
65378;SHT31;51982;51.042;13.806;2023-02-01T05:20:24;8.10;72.67
65378;SHT31;51982;51.042;13.806;2023-02-01T05:22:49;8.12;72.67
65378;SHT31;51982;51.042;13.806;2023-02-01T05:25:15;8.10;72.32
65378;SHT31;51982;51.042;13.806;2023-02-01T05:27:40;8.13;72.57
65378;SHT31;51982;51.042;13.806;2023-02-01T05:30:07;8.16;72.50
65378;SHT31;51982;51.042;13.806;2023-02-01T05:32:32;8.17;72.44
65378;SHT31;51982;51.042;13.806;2023-02-01T05:34:57;8.17;72.25
65378;SHT31;51982;51.042;13.806;2023-02-01T05:37:23;8.16;72.36
65378;SHT31;51982;51.042;13.806;2023-02-01T05:39:48;8.20;72.28
65378;SHT31;51982;51.042;13.806;2023-02-01T05:42:14;8.23;72.31
65378;SHT31;51982;51.042;13.806;2023-02-01T05:44:39;8.19;72.23
65378;SHT31;51982;51.042;13.806;2023-02-01T05:47:04;8.25;72.23
65378;SHT31;51982;51.042;13.806;2023-02-01T05:49:30;8.25;72.27
65378;SHT31;51982;51.042;13.806;2023-02-01T05:51:55;8.19;72.16
65378;SHT31;51982;51.042;13.806;2023-02-01T05:54:20;8.20;72.31
65378;SHT31;51982;51.042;13.806;2023-02-01T05:56:45;8.17;71.88
65378;SHT31;51982;51.042;13.806;2023-02-01T05:59:13;8.12;72.05
65378;SHT31;51982;51.042;13.806;2023-02-01T06:01:38;8.19;71.94
65378;SHT31;51982;51.042;13.806;2023-02-01T06:04:04;8.19;72.17
65378;SHT31;51982;51.042;13.806;2023-02-01T06:06:29;8.14;72.19
65378;SHT31;51982;51.042;13.806;2023-02-01T06:08:54;8.14;72.59
65378;SHT31;51982;51.042;13.806;2023-02-01T06:11:19;8.12;72.80
65378;SHT31;51982;51.042;13.806;2023-02-01T06:13:44;8.22;72.75
65378;SHT31;51982;51.042;13.806;2023-02-01T06:16:10;8.22;72.73
65378;SHT31;51982;51.042;13.806;2023-02-01T06:18:35;8.13;72.30
65378;SHT31;51982;51.042;13.806;2023-02-01T06:21:00;8.23;72.68
65378;SHT31;51982;51.042;13.806;2023-02-01T06:23:27;8.20;72.31
65378;SHT31;51982;51.042;13.806;2023-02-01T06:28:25;8.17;73.14
65378;SHT31;51982;51.042;13.806;2023-02-01T06:30:51;8.23;72.55
65378;SHT31;51982;51.042;13.806;2023-02-01T06:33:16;8.23;72.67
65378;SHT31;51982;51.042;13.806;2023-02-01T06:35:42;8.28;72.61
65378;SHT31;51982;51.042;13.806;2023-02-01T06:38:10;8.26;72.48
65378;SHT31;51982;51.042;13.806;2023-02-01T06:40:35;8.28;72.86
65378;SHT31;51982;51.042;13.806;2023-02-01T06:43:01;8.29;72.55
65378;SHT31;51982;51.042;13.806;2023-02-01T06:45:26;8.32;72.58
65378;SHT31;51982;51.042;13.806;2023-02-01T06:47:51;8.22;72.88
65378;SHT31;51982;51.042;13.806;2023-02-01T06:50:16;8.20;73.26
65378;SHT31;51982;51.042;13.806;2023-02-01T06:52:42;8.16;73.75
65378;SHT31;51982;51.042;13.806;2023-02-01T06:55:07;8.19;73.68
65378;SHT31;51982;51.042;13.806;2023-02-01T06:57:32;8.22;73.71
65378;SHT31;51982;51.042;13.806;2023-02-01T06:59:59;8.22;73.52
65378;SHT31;51982;51.042;13.806;2023-02-01T07:02:27;8.23;73.61
65378;SHT31;51982;51.042;13.806;2023-02-01T07:04:53;8.26;73.58
65378;SHT31;51982;51.042;13.806;2023-02-01T07:07:18;8.22;73.39
65378;SHT31;51982;51.042;13.806;2023-02-01T07:09:44;8.30;73.49
65378;SHT31;51982;51.042;13.806;2023-02-01T07:12:10;8.33;73.46
65378;SHT31;51982;51.042;13.806;2023-02-01T07:14:35;8.29;73.53
65378;SHT31;51982;51.042;13.806;2023-02-01T07:17:00;8.28;74.13
65378;SHT31;51982;51.042;13.806;2023-02-01T07:19:25;8.32;74.39
65378;SHT31;51982;51.042;13.806;2023-02-01T07:21:51;8.26;74.65
65378;SHT31;51982;51.042;13.806;2023-02-01T07:24:16;8.23;75.16
65378;SHT31;51982;51.042;13.806;2023-02-01T07:26:41;8.25;75.84
65378;SHT31;51982;51.042;13.806;2023-02-01T07:29:06;8.13;77.86
65378;SHT31;51982;51.042;13.806;2023-02-01T07:31:31;8.14;77.96
65378;SHT31;51982;51.042;13.806;2023-02-01T07:33:57;8.12;77.89
65378;SHT31;51982;51.042;13.806;2023-02-01T07:36:23;8.13;77.45
65378;SHT31;51982;51.042;13.806;2023-02-01T07:38:49;8.06;78.18
65378;SHT31;51982;51.042;13.806;2023-02-01T07:41:15;8.00;78.13
65378;SHT31;51982;51.042;13.806;2023-02-01T07:43:40;7.98;77.99
65378;SHT31;51982;51.042;13.806;2023-02-01T07:46:06;8.00;77.90
65378;SHT31;51982;51.042;13.806;2023-02-01T07:48:32;8.06;77.85
65378;SHT31;51982;51.042;13.806;2023-02-01T07:53:26;8.13;77.39
65378;SHT31;51982;51.042;13.806;2023-02-01T07:55:53;8.07;77.49
65378;SHT31;51982;51.042;13.806;2023-02-01T07:58:18;8.07;77.14
65378;SHT31;51982;51.042;13.806;2023-02-01T08:00:43;8.17;77.08
65378;SHT31;51982;51.042;13.806;2023-02-01T08:03:27;8.20;76.89
65378;SHT31;51982;51.042;13.806;2023-02-01T08:05:55;8.26;76.68
65378;SHT31;51982;51.042;13.806;2023-02-01T08:08:21;8.23;76.59
65378;SHT31;51982;51.042;13.806;2023-02-01T08:10:46;8.25;76.48
65378;SHT31;51982;51.042;13.806;2023-02-01T08:13:12;8.26;76.21
65378;SHT31;51982;51.042;13.806;2023-02-01T08:15:37;8.28;76.38
65378;SHT31;51982;51.042;13.806;2023-02-01T08:18:05;8.26;76.21
65378;SHT31;51982;51.042;13.806;2023-02-01T08:20:30;8.30;76.30
65378;SHT31;51982;51.042;13.806;2023-02-01T08:22:55;8.32;76.53
65378;SHT31;51982;51.042;13.806;2023-02-01T08:25:22;8.23;76.49
65378;SHT31;51982;51.042;13.806;2023-02-01T08:27:48;8.22;76.41
65378;SHT31;51982;51.042;13.806;2023-02-01T08:30:14;8.20;76.92
65378;SHT31;51982;51.042;13.806;2023-02-01T08:32:39;8.22;77.39
65378;SHT31;51982;51.042;13.806;2023-02-01T08:35:05;8.23;77.31
65378;SHT31;51982;51.042;13.806;2023-02-01T08:37:34;8.16;77.36
65378;SHT31;51982;51.042;13.806;2023-02-01T08:39:59;8.25;77.10
65378;SHT31;51982;51.042;13.806;2023-02-01T08:42:24;8.26;76.62
65378;SHT31;51982;51.042;13.806;2023-02-01T08:45:08;8.23;76.46
65378;SHT31;51982;51.042;13.806;2023-02-01T08:47:35;8.23;75.87
65378;SHT31;51982;51.042;13.806;2023-02-01T08:50:00;8.29;75.75
65378;SHT31;51982;51.042;13.806;2023-02-01T08:52:26;8.28;75.26
65378;SHT31;51982;51.042;13.806;2023-02-01T08:54:51;8.30;74.89
65378;SHT31;51982;51.042;13.806;2023-02-01T08:57:16;8.41;74.58
65378;SHT31;51982;51.042;13.806;2023-02-01T08:59:42;8.46;74.57
65378;SHT31;51982;51.042;13.806;2023-02-01T09:02:12;8.44;74.31
65378;SHT31;51982;51.042;13.806;2023-02-01T09:04:38;8.60;74.02
65378;SHT31;51982;51.042;13.806;2023-02-01T09:07:03;8.64;73.47
65378;SHT31;51982;51.042;13.806;2023-02-01T09:09:28;8.65;73.51
65378;SHT31;51982;51.042;13.806;2023-02-01T09:11:53;8.67;73.41
65378;SHT31;51982;51.042;13.806;2023-02-01T09:14:19;8.70;73.15
65378;SHT31;51982;51.042;13.806;2023-02-01T09:16:44;8.74;73.15
65378;SHT31;51982;51.042;13.806;2023-02-01T09:19:09;8.87;73.23
65378;SHT31;51982;51.042;13.806;2023-02-01T09:21:35;8.92;73.07
65378;SHT31;51982;51.042;13.806;2023-02-01T09:24:01;8.89;73.24
65378;SHT31;51982;51.042;13.806;2023-02-01T09:26:26;8.88;73.30
65378;SHT31;51982;51.042;13.806;2023-02-01T09:28:52;8.89;73.27
65378;SHT31;51982;51.042;13.806;2023-02-01T09:31:18;8.78;73.55
65378;SHT31;51982;51.042;13.806;2023-02-01T09:33:46;8.75;74.01
65378;SHT31;51982;51.042;13.806;2023-02-01T09:36:12;8.77;74.90
65378;SHT31;51982;51.042;13.806;2023-02-01T09:38:37;8.67;75.40
65378;SHT31;51982;51.042;13.806;2023-02-01T09:41:14;8.73;75.42
65378;SHT31;51982;51.042;13.806;2023-02-01T09:43:48;8.83;76.09
65378;SHT31;51982;51.042;13.806;2023-02-01T09:46:22;8.81;75.65
65378;SHT31;51982;51.042;13.806;2023-02-01T09:48:49;8.73;76.02
65378;SHT31;51982;51.042;13.806;2023-02-01T09:51:21;8.56;77.48
65378;SHT31;51982;51.042;13.806;2023-02-01T09:53:55;8.53;78.71
65378;SHT31;51982;51.042;13.806;2023-02-01T09:56:33;8.32;78.84
65378;SHT31;51982;51.042;13.806;2023-02-01T09:59:19;8.23;80.52
65378;SHT31;51982;51.042;13.806;2023-02-01T10:01:48;7.96;81.58
65378;SHT31;51982;51.042;13.806;2023-02-01T10:04:15;7.89;82.07
65378;SHT31;51982;51.042;13.806;2023-02-01T10:06:57;7.90;82.18
65378;SHT31;51982;51.042;13.806;2023-02-01T10:09:37;7.90;82.23
65378;SHT31;51982;51.042;13.806;2023-02-01T10:15:41;8.00;81.69
65378;SHT31;51982;51.042;13.806;2023-02-01T10:18:57;7.92;81.24
65378;SHT31;51982;51.042;13.806;2023-02-01T10:21:32;7.86;80.79
65378;SHT31;51982;51.042;13.806;2023-02-01T10:27:06;7.79;80.88
65378;SHT31;51982;51.042;13.806;2023-02-01T10:29:37;7.92;80.90
65378;SHT31;51982;51.042;13.806;2023-02-01T10:32:11;7.75;81.27
65378;SHT31;51982;51.042;13.806;2023-02-01T10:34:38;7.79;81.79
65378;SHT31;51982;51.042;13.806;2023-02-01T10:37:27;7.86;81.33
65378;SHT31;51982;51.042;13.806;2023-02-01T10:39:55;7.95;81.36
65378;SHT31;51982;51.042;13.806;2023-02-01T10:42:24;7.93;81.15
65378;SHT31;51982;51.042;13.806;2023-02-01T10:44:50;8.02;81.18
65378;SHT31;51982;51.042;13.806;2023-02-01T10:47:15;7.95;81.57
65378;SHT31;51982;51.042;13.806;2023-02-01T10:49:52;8.05;81.51
65378;SHT31;51982;51.042;13.806;2023-02-01T10:52:30;8.12;80.86
65378;SHT31;51982;51.042;13.806;2023-02-01T10:54:56;8.25;80.70
65378;SHT31;51982;51.042;13.806;2023-02-01T10:57:23;8.32;80.85
65378;SHT31;51982;51.042;13.806;2023-02-01T10:59:55;8.34;80.21
65378;SHT31;51982;51.042;13.806;2023-02-01T11:02:31;8.25;80.12
65378;SHT31;51982;51.042;13.806;2023-02-01T11:05:24;8.29;80.77
65378;SHT31;51982;51.042;13.806;2023-02-01T11:07:54;8.44;80.05
65378;SHT31;51982;51.042;13.806;2023-02-01T11:10:36;8.40;80.53
65378;SHT31;51982;51.042;13.806;2023-02-01T11:13:03;8.47;79.76
65378;SHT31;51982;51.042;13.806;2023-02-01T11:15:29;8.63;79.16
65378;SHT31;51982;51.042;13.806;2023-02-01T11:17:54;8.67;78.86
65378;SHT31;51982;51.042;13.806;2023-02-01T11:20:39;8.70;78.11
65378;SHT31;51982;51.042;13.806;2023-02-01T11:23:10;8.59;77.75
65378;SHT31;51982;51.042;13.806;2023-02-01T11:25:37;8.67;78.15
65378;SHT31;51982;51.042;13.806;2023-02-01T11:28:03;8.75;78.28
65378;SHT31;51982;51.042;13.806;2023-02-01T11:30:36;8.68;77.37
65378;SHT31;51982;51.042;13.806;2023-02-01T11:33:04;8.60;77.05
65378;SHT31;51982;51.042;13.806;2023-02-01T11:35:30;8.68;77.05
65378;SHT31;51982;51.042;13.806;2023-02-01T11:37:58;8.61;77.46
65378;SHT31;51982;51.042;13.806;2023-02-01T11:40:37;8.65;77.24
65378;SHT31;51982;51.042;13.806;2023-02-01T11:43:13;8.63;77.14
65378;SHT31;51982;51.042;13.806;2023-02-01T11:45:39;8.64;77.22
65378;SHT31;51982;51.042;13.806;2023-02-01T11:48:09;8.71;76.76
65378;SHT31;51982;51.042;13.806;2023-02-01T11:56:26;8.84;76.19
65378;SHT31;51982;51.042;13.806;2023-02-01T11:59:08;8.78;76.78
65378;SHT31;51982;51.042;13.806;2023-02-01T12:10:25;8.91;76.80
65378;SHT31;51982;51.042;13.806;2023-02-01T12:13:06;8.94;76.84
65378;SHT31;51982;51.042;13.806;2023-02-01T12:15:45;9.05;76.65
65378;SHT31;51982;51.042;13.806;2023-02-01T12:24:19;9.11;75.73
65378;SHT31;51982;51.042;13.806;2023-02-01T12:29:48;9.10;75.85
65378;SHT31;51982;51.042;13.806;2023-02-01T12:32:38;9.04;75.60
65378;SHT31;51982;51.042;13.806;2023-02-01T12:35:36;9.00;75.46
65378;SHT31;51982;51.042;13.806;2023-02-01T12:38:17;9.02;75.16
65378;SHT31;51982;51.042;13.806;2023-02-01T12:43:39;9.05;75.31
65378;SHT31;51982;51.042;13.806;2023-02-01T12:48:59;9.08;75.13
65378;SHT31;51982;51.042;13.806;2023-02-01T12:51:29;9.02;74.97
65378;SHT31;51982;51.042;13.806;2023-02-01T12:56:47;9.00;75.05
65378;SHT31;51982;51.042;13.806;2023-02-01T12:59:33;8.95;75.23
65378;SHT31;51982;51.042;13.806;2023-02-01T13:02:08;9.04;75.20
65378;SHT31;51982;51.042;13.806;2023-02-01T13:04:49;9.04;74.99
65378;SHT31;51982;51.042;13.806;2023-02-01T13:07:26;9.21;75.06
65378;SHT31;51982;51.042;13.806;2023-02-01T13:09:57;9.18;75.40
65378;SHT31;51982;51.042;13.806;2023-02-01T13:12:29;9.24;75.01
65378;SHT31;51982;51.042;13.806;2023-02-01T13:15:27;9.22;74.96
65378;SHT31;51982;51.042;13.806;2023-02-01T13:17:55;9.35;74.99
65378;SHT31;51982;51.042;13.806;2023-02-01T13:20:30;9.26;74.84
65378;SHT31;51982;51.042;13.806;2023-02-01T13:23:08;9.26;74.55
65378;SHT31;51982;51.042;13.806;2023-02-01T13:25:48;9.34;74.37
65378;SHT31;51982;51.042;13.806;2023-02-01T13:28:32;9.36;74.36
65378;SHT31;51982;51.042;13.806;2023-02-01T13:31:25;9.42;74.34
65378;SHT31;51982;51.042;13.806;2023-02-01T13:34:00;9.38;74.20
65378;SHT31;51982;51.042;13.806;2023-02-01T13:36:34;9.29;73.98
65378;SHT31;51982;51.042;13.806;2023-02-01T13:39:32;9.34;74.07
65378;SHT31;51982;51.042;13.806;2023-02-01T13:42:05;9.38;74.16
65378;SHT31;51982;51.042;13.806;2023-02-01T13:44:40;9.32;73.62
65378;SHT31;51982;51.042;13.806;2023-02-01T13:47:23;9.35;73.68
65378;SHT31;51982;51.042;13.806;2023-02-01T13:49:49;9.45;73.50
65378;SHT31;51982;51.042;13.806;2023-02-01T13:52:28;9.39;73.34
65378;SHT31;51982;51.042;13.806;2023-02-01T13:55:03;9.36;73.03
65378;SHT31;51982;51.042;13.806;2023-02-01T13:57:40;9.43;72.97
65378;SHT31;51982;51.042;13.806;2023-02-01T14:13:26;9.32;72.15
65378;SHT31;51982;51.042;13.806;2023-02-01T14:21:32;9.50;72.05
65378;SHT31;51982;51.042;13.806;2023-02-01T14:24:02;9.49;71.90
65378;SHT31;51982;51.042;13.806;2023-02-01T14:31:53;9.45;71.30
65378;SHT31;51982;51.042;13.806;2023-02-01T14:34:31;9.43;71.10
65378;SHT31;51982;51.042;13.806;2023-02-01T14:37:02;9.43;71.08
65378;SHT31;51982;51.042;13.806;2023-02-01T14:41:58;9.43;71.09
65378;SHT31;51982;51.042;13.806;2023-02-01T14:44:30;9.43;70.91
65378;SHT31;51982;51.042;13.806;2023-02-01T14:52:37;9.34;71.29
65378;SHT31;51982;51.042;13.806;2023-02-01T14:55:12;9.32;71.37
65378;SHT31;51982;51.042;13.806;2023-02-01T14:57:43;9.29;71.09
65378;SHT31;51982;51.042;13.806;2023-02-01T15:00:27;9.32;71.35
65378;SHT31;51982;51.042;13.806;2023-02-01T15:02:55;9.29;71.07
65378;SHT31;51982;51.042;13.806;2023-02-01T15:05:30;9.26;71.25
65378;SHT31;51982;51.042;13.806;2023-02-01T15:07:59;9.28;71.25
65378;SHT31;51982;51.042;13.806;2023-02-01T15:10:30;9.24;71.20
65378;SHT31;51982;51.042;13.806;2023-02-01T15:12:56;9.25;71.08
65378;SHT31;51982;51.042;13.806;2023-02-01T15:15:23;9.25;70.92
65378;SHT31;51982;51.042;13.806;2023-02-01T15:17:56;9.24;71.02
65378;SHT31;51982;51.042;13.806;2023-02-01T15:20:28;9.29;71.07
65378;SHT31;51982;51.042;13.806;2023-02-01T15:22:55;9.29;71.17
65378;SHT31;51982;51.042;13.806;2023-02-01T15:25:23;9.28;72.00
65378;SHT31;51982;51.042;13.806;2023-02-01T15:27:48;9.31;72.74
65378;SHT31;51982;51.042;13.806;2023-02-01T15:30:22;9.26;73.22
65378;SHT31;51982;51.042;13.806;2023-02-01T15:32:48;9.07;73.77
65378;SHT31;51982;51.042;13.806;2023-02-01T15:35:37;9.14;74.44
65378;SHT31;51982;51.042;13.806;2023-02-01T15:43:18;9.08;73.67
65378;SHT31;51982;51.042;13.806;2023-02-01T15:45:44;8.97;73.03
65378;SHT31;51982;51.042;13.806;2023-02-01T15:48:16;8.97;73.16
65378;SHT31;51982;51.042;13.806;2023-02-01T15:50:44;8.94;72.71
65378;SHT31;51982;51.042;13.806;2023-02-01T15:53:16;8.95;72.95
65378;SHT31;51982;51.042;13.806;2023-02-01T15:55:43;8.98;72.63
65378;SHT31;51982;51.042;13.806;2023-02-01T15:58:19;9.01;72.51
65378;SHT31;51982;51.042;13.806;2023-02-01T16:03:37;9.02;72.18
65378;SHT31;51982;51.042;13.806;2023-02-01T16:06:06;9.12;72.35
65378;SHT31;51982;51.042;13.806;2023-02-01T16:08:50;9.05;72.13
65378;SHT31;51982;51.042;13.806;2023-02-01T16:11:28;9.05;72.67
65378;SHT31;51982;51.042;13.806;2023-02-01T16:13:56;9.04;73.06
65378;SHT31;51982;51.042;13.806;2023-02-01T16:16:21;8.94;73.52
65378;SHT31;51982;51.042;13.806;2023-02-01T16:18:47;8.85;73.98
65378;SHT31;51982;51.042;13.806;2023-02-01T16:21:12;8.85;73.94
65378;SHT31;51982;51.042;13.806;2023-02-01T16:23:38;8.88;74.20
65378;SHT31;51982;51.042;13.806;2023-02-01T16:26:09;8.83;74.33
65378;SHT31;51982;51.042;13.806;2023-02-01T16:28:36;8.77;74.87
65378;SHT31;51982;51.042;13.806;2023-02-01T16:31:02;8.81;74.88
65378;SHT31;51982;51.042;13.806;2023-02-01T16:33:27;8.80;75.26
65378;SHT31;51982;51.042;13.806;2023-02-01T16:35:58;8.75;75.34
65378;SHT31;51982;51.042;13.806;2023-02-01T16:38:25;8.65;76.19
65378;SHT31;51982;51.042;13.806;2023-02-01T16:40:54;8.74;76.17
65378;SHT31;51982;51.042;13.806;2023-02-01T16:43:24;8.63;76.95
65378;SHT31;51982;51.042;13.806;2023-02-01T16:45:54;8.59;77.56
65378;SHT31;51982;51.042;13.806;2023-02-01T16:48:34;8.53;78.33
65378;SHT31;51982;51.042;13.806;2023-02-01T16:51:08;8.47;79.08
65378;SHT31;51982;51.042;13.806;2023-02-01T16:53:34;8.40;79.85
65378;SHT31;51982;51.042;13.806;2023-02-01T16:55:59;8.37;79.54
65378;SHT31;51982;51.042;13.806;2023-02-01T16:58:28;8.40;79.71
65378;SHT31;51982;51.042;13.806;2023-02-01T17:00:56;8.43;79.60
65378;SHT31;51982;51.042;13.806;2023-02-01T17:03:22;8.41;80.25
65378;SHT31;51982;51.042;13.806;2023-02-01T17:05:50;8.29;81.40
65378;SHT31;51982;51.042;13.806;2023-02-01T17:08:19;8.20;81.74
65378;SHT31;51982;51.042;13.806;2023-02-01T17:10:47;8.06;83.57
65378;SHT31;51982;51.042;13.806;2023-02-01T17:13:14;7.74;87.83
65378;SHT31;51982;51.042;13.806;2023-02-01T17:15:49;7.41;89.35
65378;SHT31;51982;51.042;13.806;2023-02-01T17:18:16;7.23;88.33
65378;SHT31;51982;51.042;13.806;2023-02-01T17:20:45;7.24;88.12
65378;SHT31;51982;51.042;13.806;2023-02-01T17:23:13;7.14;86.32
65378;SHT31;51982;51.042;13.806;2023-02-01T17:25:43;7.04;86.38
65378;SHT31;51982;51.042;13.806;2023-02-01T17:28:09;7.00;86.68
65378;SHT31;51982;51.042;13.806;2023-02-01T17:30:40;7.04;86.56
65378;SHT31;51982;51.042;13.806;2023-02-01T17:33:24;6.93;85.42